sensor_id;sensor_type;location;lat;lon;timestamp;temperature;humidity
9768;DHT22;4923;52.520;13.494;2022-07-30T00:02:14;19.70;1.00
9768;DHT22;4923;52.520;13.494;2022-07-30T00:05:02;19.70;1.00
9768;DHT22;4923;52.520;13.494;2022-07-30T00:07:49;19.60;1.00
9768;DHT22;4923;52.520;13.494;2022-07-30T00:10:38;19.50;1.00
9768;DHT22;4923;52.520;13.494;2022-07-30T00:13:25;19.50;1.00
9768;DHT22;4923;52.520;13.494;2022-07-30T00:16:11;19.50;1.00
9768;DHT22;4923;52.520;13.494;2022-07-30T00:18:58;19.40;1.00
9768;DHT22;4923;52.520;13.494;2022-07-30T00:21:46;19.40;1.00
9768;DHT22;4923;52.520;13.494;2022-07-30T00:24:33;19.40;1.00
9768;DHT22;4923;52.520;13.494;2022-07-30T00:27:21;19.40;1.00
9768;DHT22;4923;52.520;13.494;2022-07-30T00:30:09;19.40;1.00
9768;DHT22;4923;52.520;13.494;2022-07-30T00:32:56;19.40;1.00
9768;DHT22;4923;52.520;13.494;2022-07-30T00:35:43;19.40;1.00
9768;DHT22;4923;52.520;13.494;2022-07-30T00:38:31;19.30;1.00
9768;DHT22;4923;52.520;13.494;2022-07-30T00:41:18;19.30;1.00
9768;DHT22;4923;52.520;13.494;2022-07-30T00:44:06;19.30;1.00
9768;DHT22;4923;52.520;13.494;2022-07-30T00:46:53;19.30;1.00
9768;DHT22;4923;52.520;13.494;2022-07-30T00:49:40;19.20;1.00
9768;DHT22;4923;52.520;13.494;2022-07-30T00:52:27;19.30;1.00
9768;DHT22;4923;52.520;13.494;2022-07-30T00:55:14;19.30;1.00
9768;DHT22;4923;52.520;13.494;2022-07-30T00:58:01;19.30;1.00
9768;DHT22;4923;52.520;13.494;2022-07-30T01:00:49;19.20;1.00
9768;DHT22;4923;52.520;13.494;2022-07-30T01:03:36;19.20;1.00
9768;DHT22;4923;52.520;13.494;2022-07-30T01:06:24;19.10;1.00
9768;DHT22;4923;52.520;13.494;2022-07-30T01:09:11;19.10;1.00
9768;DHT22;4923;52.520;13.494;2022-07-30T01:11:58;19.10;1.00
9768;DHT22;4923;52.520;13.494;2022-07-30T01:14:45;19.10;1.00
9768;DHT22;4923;52.520;13.494;2022-07-30T01:17:33;19.10;1.00
9768;DHT22;4923;52.520;13.494;2022-07-30T01:20:24;19.10;1.00
9768;DHT22;4923;52.520;13.494;2022-07-30T01:23:16;19.00;1.00
9768;DHT22;4923;52.520;13.494;2022-07-30T01:26:08;19.00;1.00
9768;DHT22;4923;52.520;13.494;2022-07-30T01:28:57;19.10;1.00
9768;DHT22;4923;52.520;13.494;2022-07-30T01:31:46;19.00;1.00
9768;DHT22;4923;52.520;13.494;2022-07-30T01:34:34;19.00;1.00
9768;DHT22;4923;52.520;13.494;2022-07-30T01:37:23;18.90;1.00
9768;DHT22;4923;52.520;13.494;2022-07-30T01:40:12;18.90;1.00
9768;DHT22;4923;52.520;13.494;2022-07-30T01:43:01;18.90;1.00
9768;DHT22;4923;52.520;13.494;2022-07-30T01:45:49;18.90;1.00
9768;DHT22;4923;52.520;13.494;2022-07-30T01:48:38;18.90;1.00
9768;DHT22;4923;52.520;13.494;2022-07-30T01:51:27;18.80;1.00
9768;DHT22;4923;52.520;13.494;2022-07-30T01:54:16;18.80;1.00
9768;DHT22;4923;52.520;13.494;2022-07-30T01:57:05;18.80;1.00
9768;DHT22;4923;52.520;13.494;2022-07-30T02:00:00;18.80;1.00
9768;DHT22;4923;52.520;13.494;2022-07-30T02:02:47;18.70;1.00
9768;DHT22;4923;52.520;13.494;2022-07-30T02:05:35;18.70;1.00
9768;DHT22;4923;52.520;13.494;2022-07-30T02:08:35;18.70;1.00
9768;DHT22;4923;52.520;13.494;2022-07-30T02:11:24;18.70;1.00
9768;DHT22;4923;52.520;13.494;2022-07-30T02:14:38;18.60;1.00
9768;DHT22;4923;52.520;13.494;2022-07-30T02:17:29;18.60;1.00
9768;DHT22;4923;52.520;13.494;2022-07-30T02:20:18;18.60;1.00
9768;DHT22;4923;52.520;13.494;2022-07-30T02:23:10;18.60;1.00
9768;DHT22;4923;52.520;13.494;2022-07-30T02:25:59;18.60;1.00
9768;DHT22;4923;52.520;13.494;2022-07-30T02:28:51;18.50;1.00
9768;DHT22;4923;52.520;13.494;2022-07-30T02:31:40;18.50;1.00
9768;DHT22;4923;52.520;13.494;2022-07-30T02:34:28;18.50;1.00
9768;DHT22;4923;52.520;13.494;2022-07-30T02:37:19;18.60;1.00
9768;DHT22;4923;52.520;13.494;2022-07-30T02:40:09;18.50;1.00
9768;DHT22;4923;52.520;13.494;2022-07-30T02:42:57;18.50;1.00
9768;DHT22;4923;52.520;13.494;2022-07-30T02:45:46;18.50;1.00
9768;DHT22;4923;52.520;13.494;2022-07-30T02:48:35;18.50;1.00
9768;DHT22;4923;52.520;13.494;2022-07-30T02:51:26;18.50;1.00
9768;DHT22;4923;52.520;13.494;2022-07-30T02:54:14;18.50;1.00
9768;DHT22;4923;52.520;13.494;2022-07-30T02:57:03;18.50;1.00
9768;DHT22;4923;52.520;13.494;2022-07-30T02:59:52;18.50;1.00
9768;DHT22;4923;52.520;13.494;2022-07-30T03:02:42;18.50;1.00
9768;DHT22;4923;52.520;13.494;2022-07-30T03:05:30;18.50;1.00
9768;DHT22;4923;52.520;13.494;2022-07-30T03:08:19;18.50;1.00
9768;DHT22;4923;52.520;13.494;2022-07-30T03:11:07;18.40;1.00
9768;DHT22;4923;52.520;13.494;2022-07-30T03:13:55;18.40;1.00
9768;DHT22;4923;52.520;13.494;2022-07-30T03:16:45;18.40;1.00
9768;DHT22;4923;52.520;13.494;2022-07-30T03:19:36;18.40;1.00
9768;DHT22;4923;52.520;13.494;2022-07-30T03:22:25;18.40;1.00
9768;DHT22;4923;52.520;13.494;2022-07-30T03:25:17;18.30;1.00
9768;DHT22;4923;52.520;13.494;2022-07-30T03:28:05;18.30;1.00
9768;DHT22;4923;52.520;13.494;2022-07-30T03:30:53;18.20;1.00
9768;DHT22;4923;52.520;13.494;2022-07-30T03:33:41;18.20;1.00
9768;DHT22;4923;52.520;13.494;2022-07-30T03:36:29;18.20;1.00
9768;DHT22;4923;52.520;13.494;2022-07-30T03:39:19;18.20;1.00
9768;DHT22;4923;52.520;13.494;2022-07-30T03:42:08;18.10;1.00
9768;DHT22;4923;52.520;13.494;2022-07-30T03:44:56;18.10;1.00
9768;DHT22;4923;52.520;13.494;2022-07-30T03:47:43;18.10;1.00
9768;DHT22;4923;52.520;13.494;2022-07-30T03:50:32;18.10;1.00
9768;DHT22;4923;52.520;13.494;2022-07-30T03:53:20;18.10;1.00
9768;DHT22;4923;52.520;13.494;2022-07-30T03:56:10;18.20;1.00
9768;DHT22;4923;52.520;13.494;2022-07-30T03:59:00;18.20;1.00
9768;DHT22;4923;52.520;13.494;2022-07-30T04:01:47;18.10;1.00
9768;DHT22;4923;52.520;13.494;2022-07-30T04:04:34;18.10;1.00
9768;DHT22;4923;52.520;13.494;2022-07-30T04:07:21;18.20;1.00
9768;DHT22;4923;52.520;13.494;2022-07-30T04:10:09;18.20;1.00
9768;DHT22;4923;52.520;13.494;2022-07-30T04:12:55;18.20;1.00
9768;DHT22;4923;52.520;13.494;2022-07-30T04:15:48;18.20;1.00
9768;DHT22;4923;52.520;13.494;2022-07-30T04:18:39;18.20;1.00
9768;DHT22;4923;52.520;13.494;2022-07-30T04:21:29;18.20;1.00
9768;DHT22;4923;52.520;13.494;2022-07-30T04:24:18;18.30;1.00
9768;DHT22;4923;52.520;13.494;2022-07-30T04:27:05;18.30;1.00
9768;DHT22;4923;52.520;13.494;2022-07-30T04:29:53;18.30;1.00
9768;DHT22;4923;52.520;13.494;2022-07-30T04:32:42;18.30;1.00
9768;DHT22;4923;52.520;13.494;2022-07-30T04:35:30;18.30;1.00
9768;DHT22;4923;52.520;13.494;2022-07-30T04:38:17;18.40;1.00
9768;DHT22;4923;52.520;13.494;2022-07-30T04:41:04;18.50;1.00
9768;DHT22;4923;52.520;13.494;2022-07-30T04:43:52;18.50;1.00
9768;DHT22;4923;52.520;13.494;2022-07-30T04:46:39;18.50;1.00
9768;DHT22;4923;52.520;13.494;2022-07-30T04:49:27;18.60;1.00
9768;DHT22;4923;52.520;13.494;2022-07-30T04:52:18;18.60;1.00
9768;DHT22;4923;52.520;13.494;2022-07-30T04:55:08;18.60;1.00
9768;DHT22;4923;52.520;13.494;2022-07-30T04:57:57;18.70;1.00
9768;DHT22;4923;52.520;13.494;2022-07-30T05:00:46;18.70;1.00
9768;DHT22;4923;52.520;13.494;2022-07-30T05:03:34;18.70;1.00
9768;DHT22;4923;52.520;13.494;2022-07-30T05:06:24;18.70;1.00
9768;DHT22;4923;52.520;13.494;2022-07-30T05:09:13;18.70;1.00
9768;DHT22;4923;52.520;13.494;2022-07-30T05:12:00;18.80;1.00
9768;DHT22;4923;52.520;13.494;2022-07-30T05:14:47;18.80;1.00
9768;DHT22;4923;52.520;13.494;2022-07-30T05:17:35;18.90;1.00
9768;DHT22;4923;52.520;13.494;2022-07-30T05:20:22;18.90;1.00
9768;DHT22;4923;52.520;13.494;2022-07-30T05:23:10;19.00;1.00
9768;DHT22;4923;52.520;13.494;2022-07-30T05:25:57;19.00;1.00
9768;DHT22;4923;52.520;13.494;2022-07-30T05:28:44;19.10;1.00
9768;DHT22;4923;52.520;13.494;2022-07-30T05:31:31;19.10;1.00
9768;DHT22;4923;52.520;13.494;2022-07-30T05:34:18;19.20;1.00
9768;DHT22;4923;52.520;13.494;2022-07-30T05:37:05;19.20;1.00
9768;DHT22;4923;52.520;13.494;2022-07-30T05:39:53;19.20;1.00
9768;DHT22;4923;52.520;13.494;2022-07-30T05:42:40;19.10;1.00
9768;DHT22;4923;52.520;13.494;2022-07-30T05:45:27;19.20;1.00
9768;DHT22;4923;52.520;13.494;2022-07-30T05:48:14;19.20;1.00
9768;DHT22;4923;52.520;13.494;2022-07-30T05:51:01;19.40;1.00
9768;DHT22;4923;52.520;13.494;2022-07-30T05:53:50;19.60;1.00
9768;DHT22;4923;52.520;13.494;2022-07-30T05:56:38;19.60;1.00
9768;DHT22;4923;52.520;13.494;2022-07-30T05:59:25;19.90;1.00
9768;DHT22;4923;52.520;13.494;2022-07-30T06:02:12;20.00;1.00
9768;DHT22;4923;52.520;13.494;2022-07-30T06:04:59;19.90;1.00
9768;DHT22;4923;52.520;13.494;2022-07-30T06:07:46;19.90;1.00
9768;DHT22;4923;52.520;13.494;2022-07-30T06:10:34;20.00;1.00
9768;DHT22;4923;52.520;13.494;2022-07-30T06:13:22;19.90;1.00
9768;DHT22;4923;52.520;13.494;2022-07-30T06:16:09;20.10;1.00
9768;DHT22;4923;52.520;13.494;2022-07-30T06:18:56;19.80;1.00
9768;DHT22;4923;52.520;13.494;2022-07-30T06:21:42;19.80;1.00
9768;DHT22;4923;52.520;13.494;2022-07-30T06:24:29;19.80;1.00
9768;DHT22;4923;52.520;13.494;2022-07-30T06:27:17;19.90;1.00
9768;DHT22;4923;52.520;13.494;2022-07-30T06:30:08;20.00;1.00
9768;DHT22;4923;52.520;13.494;2022-07-30T06:32:56;20.10;1.00
9768;DHT22;4923;52.520;13.494;2022-07-30T06:35:43;20.40;1.00
9768;DHT22;4923;52.520;13.494;2022-07-30T06:38:30;20.40;1.00
9768;DHT22;4923;52.520;13.494;2022-07-30T06:41:17;20.40;1.00
9768;DHT22;4923;52.520;13.494;2022-07-30T06:44:04;20.60;1.00
9768;DHT22;4923;52.520;13.494;2022-07-30T06:46:52;20.50;1.00
9768;DHT22;4923;52.520;13.494;2022-07-30T06:49:39;20.60;1.00
9768;DHT22;4923;52.520;13.494;2022-07-30T06:52:26;20.40;1.00
9768;DHT22;4923;52.520;13.494;2022-07-30T06:55:13;20.60;1.00
9768;DHT22;4923;52.520;13.494;2022-07-30T06:58:00;20.80;1.00
9768;DHT22;4923;52.520;13.494;2022-07-30T07:00:46;20.50;1.00
9768;DHT22;4923;52.520;13.494;2022-07-30T07:03:35;20.80;1.00
9768;DHT22;4923;52.520;13.494;2022-07-30T07:06:22;21.10;1.00
9768;DHT22;4923;52.520;13.494;2022-07-30T07:09:08;21.40;1.00
9768;DHT22;4923;52.520;13.494;2022-07-30T07:11:55;21.80;1.00
9768;DHT22;4923;52.520;13.494;2022-07-30T07:14:42;21.90;1.00
9768;DHT22;4923;52.520;13.494;2022-07-30T07:17:30;22.00;99.90
9768;DHT22;4923;52.520;13.494;2022-07-30T07:20:18;22.10;99.90
9768;DHT22;4923;52.520;13.494;2022-07-30T07:23:05;22.20;99.90
9768;DHT22;4923;52.520;13.494;2022-07-30T07:25:52;22.10;99.90
9768;DHT22;4923;52.520;13.494;2022-07-30T07:28:39;22.10;99.90
9768;DHT22;4923;52.520;13.494;2022-07-30T07:31:26;22.50;99.90
9768;DHT22;4923;52.520;13.494;2022-07-30T07:34:13;22.70;99.90
9768;DHT22;4923;52.520;13.494;2022-07-30T07:37:02;22.70;99.90
9768;DHT22;4923;52.520;13.494;2022-07-30T07:39:49;22.90;99.90
9768;DHT22;4923;52.520;13.494;2022-07-30T07:42:35;22.90;99.90
9768;DHT22;4923;52.520;13.494;2022-07-30T07:45:22;23.00;99.90
9768;DHT22;4923;52.520;13.494;2022-07-30T07:48:09;23.10;99.90
9768;DHT22;4923;52.520;13.494;2022-07-30T07:50:56;23.40;99.90
9768;DHT22;4923;52.520;13.494;2022-07-30T07:53:44;23.70;99.90
9768;DHT22;4923;52.520;13.494;2022-07-30T07:56:31;24.10;99.90
9768;DHT22;4923;52.520;13.494;2022-07-30T07:59:18;24.20;1.00
9768;DHT22;4923;52.520;13.494;2022-07-30T08:02:05;24.10;99.90
9768;DHT22;4923;52.520;13.494;2022-07-30T08:04:52;24.20;99.90
9768;DHT22;4923;52.520;13.494;2022-07-30T08:07:39;24.40;99.90
9768;DHT22;4923;52.520;13.494;2022-07-30T08:10:28;24.60;99.90
9768;DHT22;4923;52.520;13.494;2022-07-30T08:13:15;24.70;99.90
9768;DHT22;4923;52.520;13.494;2022-07-30T08:16:02;24.70;99.90
9768;DHT22;4923;52.520;13.494;2022-07-30T08:18:49;24.90;99.90
9768;DHT22;4923;52.520;13.494;2022-07-30T08:21:36;24.80;99.90
9768;DHT22;4923;52.520;13.494;2022-07-30T08:24:23;24.80;99.90
9768;DHT22;4923;52.520;13.494;2022-07-30T08:27:12;25.10;99.90
9768;DHT22;4923;52.520;13.494;2022-07-30T08:30:02;25.30;99.90
9768;DHT22;4923;52.520;13.494;2022-07-30T08:32:49;25.20;99.90
9768;DHT22;4923;52.520;13.494;2022-07-30T08:35:36;25.30;99.90
9768;DHT22;4923;52.520;13.494;2022-07-30T08:38:23;25.30;99.90
9768;DHT22;4923;52.520;13.494;2022-07-30T08:41:10;25.40;99.90
9768;DHT22;4923;52.520;13.494;2022-07-30T08:43:59;25.30;99.90
9768;DHT22;4923;52.520;13.494;2022-07-30T08:46:47;25.30;99.90
9768;DHT22;4923;52.520;13.494;2022-07-30T08:49:35;25.50;99.90
9768;DHT22;4923;52.520;13.494;2022-07-30T08:52:23;25.80;99.90
9768;DHT22;4923;52.520;13.494;2022-07-30T08:55:10;26.10;1.00
9768;DHT22;4923;52.520;13.494;2022-07-30T08:57:57;25.80;1.00
9768;DHT22;4923;52.520;13.494;2022-07-30T09:00:46;25.70;1.00
9768;DHT22;4923;52.520;13.494;2022-07-30T09:03:33;25.70;1.00
9768;DHT22;4923;52.520;13.494;2022-07-30T09:06:20;25.70;1.00
9768;DHT22;4923;52.520;13.494;2022-07-30T09:09:07;25.90;1.00
9768;DHT22;4923;52.520;13.494;2022-07-30T09:11:54;26.00;1.00
9768;DHT22;4923;52.520;13.494;2022-07-30T09:15:00;26.00;1.00
9768;DHT22;4923;52.520;13.494;2022-07-30T09:17:54;26.00;1.00
9768;DHT22;4923;52.520;13.494;2022-07-30T09:20:41;25.90;1.00
9768;DHT22;4923;52.520;13.494;2022-07-30T09:23:28;26.10;1.00
9768;DHT22;4923;52.520;13.494;2022-07-30T09:26:15;26.00;1.00
9768;DHT22;4923;52.520;13.494;2022-07-30T09:29:23;25.70;1.00
9768;DHT22;4923;52.520;13.494;2022-07-30T09:32:11;25.00;1.00
9768;DHT22;4923;52.520;13.494;2022-07-30T09:35:11;24.90;1.00
9768;DHT22;4923;52.520;13.494;2022-07-30T09:37:59;24.90;1.00
9768;DHT22;4923;52.520;13.494;2022-07-30T09:40:49;25.30;1.00
9768;DHT22;4923;52.520;13.494;2022-07-30T09:43:47;25.60;1.00
9768;DHT22;4923;52.520;13.494;2022-07-30T09:46:41;25.60;1.00
9768;DHT22;4923;52.520;13.494;2022-07-30T09:49:31;25.60;1.00
9768;DHT22;4923;52.520;13.494;2022-07-30T09:52:27;25.90;1.00
9768;DHT22;4923;52.520;13.494;2022-07-30T09:55:28;25.90;1.00
9768;DHT22;4923;52.520;13.494;2022-07-30T09:58:16;25.80;1.00
9768;DHT22;4923;52.520;13.494;2022-07-30T10:01:02;25.20;1.00
9768;DHT22;4923;52.520;13.494;2022-07-30T10:03:49;25.10;1.00
9768;DHT22;4923;52.520;13.494;2022-07-30T10:06:37;25.50;1.00
9768;DHT22;4923;52.520;13.494;2022-07-30T10:09:27;25.50;1.00
9768;DHT22;4923;52.520;13.494;2022-07-30T10:12:14;25.20;1.00
9768;DHT22;4923;52.520;13.494;2022-07-30T10:15:03;25.40;1.00
9768;DHT22;4923;52.520;13.494;2022-07-30T10:17:52;25.10;1.00
9768;DHT22;4923;52.520;13.494;2022-07-30T10:20:41;25.50;1.00
9768;DHT22;4923;52.520;13.494;2022-07-30T10:23:29;25.90;1.00
9768;DHT22;4923;52.520;13.494;2022-07-30T10:26:18;26.10;1.00
9768;DHT22;4923;52.520;13.494;2022-07-30T10:29:06;25.60;1.00
9768;DHT22;4923;52.520;13.494;2022-07-30T10:31:54;25.50;1.00
9768;DHT22;4923;52.520;13.494;2022-07-30T10:34:41;25.90;1.00
9768;DHT22;4923;52.520;13.494;2022-07-30T10:37:30;26.20;1.00
9768;DHT22;4923;52.520;13.494;2022-07-30T10:40:23;26.10;1.00
9768;DHT22;4923;52.520;13.494;2022-07-30T10:43:33;26.20;1.00
9768;DHT22;4923;52.520;13.494;2022-07-30T10:46:33;26.10;1.00
9768;DHT22;4923;52.520;13.494;2022-07-30T10:49:23;26.10;1.00
9768;DHT22;4923;52.520;13.494;2022-07-30T10:52:11;26.40;1.00
9768;DHT22;4923;52.520;13.494;2022-07-30T10:54:58;26.50;1.00
9768;DHT22;4923;52.520;13.494;2022-07-30T10:58:04;25.60;1.00
9768;DHT22;4923;52.520;13.494;2022-07-30T11:00:58;25.60;1.00
9768;DHT22;4923;52.520;13.494;2022-07-30T11:04:17;25.80;1.00
9768;DHT22;4923;52.520;13.494;2022-07-30T11:07:27;26.20;1.00
9768;DHT22;4923;52.520;13.494;2022-07-30T11:10:34;26.20;1.00
9768;DHT22;4923;52.520;13.494;2022-07-30T11:13:52;26.40;1.00
9768;DHT22;4923;52.520;13.494;2022-07-30T11:16:58;26.10;1.00
9768;DHT22;4923;52.520;13.494;2022-07-30T11:20:08;26.00;1.00
9768;DHT22;4923;52.520;13.494;2022-07-30T11:23:12;26.30;1.00
9768;DHT22;4923;52.520;13.494;2022-07-30T11:26:47;26.40;1.00
9768;DHT22;4923;52.520;13.494;2022-07-30T11:29:37;26.20;1.00
9768;DHT22;4923;52.520;13.494;2022-07-30T11:32:29;26.20;1.00
9768;DHT22;4923;52.520;13.494;2022-07-30T11:35:18;26.20;1.00
9768;DHT22;4923;52.520;13.494;2022-07-30T11:38:07;26.30;1.00
9768;DHT22;4923;52.520;13.494;2022-07-30T11:41:09;26.40;1.00
9768;DHT22;4923;52.520;13.494;2022-07-30T11:44:28;27.00;1.00
9768;DHT22;4923;52.520;13.494;2022-07-30T11:47:17;27.30;1.00
9768;DHT22;4923;52.520;13.494;2022-07-30T11:50:05;26.90;1.00
9768;DHT22;4923;52.520;13.494;2022-07-30T11:52:54;27.10;1.00
9768;DHT22;4923;52.520;13.494;2022-07-30T11:55:42;26.90;1.00
9768;DHT22;4923;52.520;13.494;2022-07-30T11:58:31;27.40;1.00
9768;DHT22;4923;52.520;13.494;2022-07-30T12:01:20;28.00;1.00
9768;DHT22;4923;52.520;13.494;2022-07-30T12:04:07;27.90;1.00
9768;DHT22;4923;52.520;13.494;2022-07-30T12:06:54;28.10;1.00
9768;DHT22;4923;52.520;13.494;2022-07-30T12:09:41;27.90;1.00
9768;DHT22;4923;52.520;13.494;2022-07-30T12:12:28;27.30;1.00
9768;DHT22;4923;52.520;13.494;2022-07-30T12:15:29;27.40;1.00
9768;DHT22;4923;52.520;13.494;2022-07-30T12:18:24;27.30;1.00
9768;DHT22;4923;52.520;13.494;2022-07-30T12:21:12;27.50;1.00
9768;DHT22;4923;52.520;13.494;2022-07-30T12:24:02;27.70;1.00
9768;DHT22;4923;52.520;13.494;2022-07-30T12:26:52;27.30;1.00
9768;DHT22;4923;52.520;13.494;2022-07-30T12:29:48;27.10;1.00
9768;DHT22;4923;52.520;13.494;2022-07-30T12:32:35;27.00;1.00
9768;DHT22;4923;52.520;13.494;2022-07-30T12:35:40;26.90;1.00
9768;DHT22;4923;52.520;13.494;2022-07-30T12:38:28;26.70;1.00
9768;DHT22;4923;52.520;13.494;2022-07-30T12:41:15;26.90;1.00
9768;DHT22;4923;52.520;13.494;2022-07-30T12:44:01;27.10;1.00
9768;DHT22;4923;52.520;13.494;2022-07-30T12:46:48;27.30;1.00
9768;DHT22;4923;52.520;13.494;2022-07-30T12:49:35;27.00;1.00
9768;DHT22;4923;52.520;13.494;2022-07-30T12:52:26;27.10;1.00
9768;DHT22;4923;52.520;13.494;2022-07-30T12:55:13;27.50;1.00
9768;DHT22;4923;52.520;13.494;2022-07-30T12:58:01;27.70;1.00
9768;DHT22;4923;52.520;13.494;2022-07-30T13:00:49;28.20;1.00
9768;DHT22;4923;52.520;13.494;2022-07-30T13:03:38;28.00;1.00
9768;DHT22;4923;52.520;13.494;2022-07-30T13:06:25;28.00;1.00
9768;DHT22;4923;52.520;13.494;2022-07-30T13:09:19;27.80;1.00
9768;DHT22;4923;52.520;13.494;2022-07-30T13:12:11;27.80;1.00
9768;DHT22;4923;52.520;13.494;2022-07-30T13:14:58;28.00;1.00
9768;DHT22;4923;52.520;13.494;2022-07-30T13:17:45;28.10;1.00
9768;DHT22;4923;52.520;13.494;2022-07-30T13:20:32;28.30;1.00
9768;DHT22;4923;52.520;13.494;2022-07-30T13:23:19;28.70;1.00
9768;DHT22;4923;52.520;13.494;2022-07-30T13:26:08;28.80;1.00
9768;DHT22;4923;52.520;13.494;2022-07-30T13:28:56;28.70;1.00
9768;DHT22;4923;52.520;13.494;2022-07-30T13:31:43;28.30;1.00
9768;DHT22;4923;52.520;13.494;2022-07-30T13:34:30;28.10;1.00
9768;DHT22;4923;52.520;13.494;2022-07-30T13:37:17;27.70;1.00
9768;DHT22;4923;52.520;13.494;2022-07-30T13:40:06;27.80;1.00
9768;DHT22;4923;52.520;13.494;2022-07-30T13:42:54;27.90;1.00
9768;DHT22;4923;52.520;13.494;2022-07-30T13:45:41;28.00;1.00
9768;DHT22;4923;52.520;13.494;2022-07-30T13:48:28;28.00;1.00
9768;DHT22;4923;52.520;13.494;2022-07-30T13:51:15;27.40;1.00
9768;DHT22;4923;52.520;13.494;2022-07-30T13:54:02;27.70;1.00
9768;DHT22;4923;52.520;13.494;2022-07-30T13:56:50;27.70;1.00
9768;DHT22;4923;52.520;13.494;2022-07-30T13:59:40;28.10;1.00
9768;DHT22;4923;52.520;13.494;2022-07-30T14:02:27;28.60;1.00
9768;DHT22;4923;52.520;13.494;2022-07-30T14:05:14;28.30;1.00
9768;DHT22;4923;52.520;13.494;2022-07-30T14:08:02;28.50;1.00
9768;DHT22;4923;52.520;13.494;2022-07-30T14:10:49;28.50;1.00
9768;DHT22;4923;52.520;13.494;2022-07-30T14:13:36;28.40;1.00
9768;DHT22;4923;52.520;13.494;2022-07-30T14:16:24;28.20;1.00
9768;DHT22;4923;52.520;13.494;2022-07-30T14:19:12;27.80;1.00
9768;DHT22;4923;52.520;13.494;2022-07-30T14:21:59;28.00;1.00
9768;DHT22;4923;52.520;13.494;2022-07-30T14:24:46;28.00;1.00
9768;DHT22;4923;52.520;13.494;2022-07-30T14:27:33;28.30;1.00
9768;DHT22;4923;52.520;13.494;2022-07-30T14:30:21;28.50;1.00
9768;DHT22;4923;52.520;13.494;2022-07-30T14:33:10;28.30;1.00
9768;DHT22;4923;52.520;13.494;2022-07-30T14:35:59;27.80;1.00
9768;DHT22;4923;52.520;13.494;2022-07-30T14:38:46;27.90;1.00
9768;DHT22;4923;52.520;13.494;2022-07-30T14:41:33;28.30;1.00
9768;DHT22;4923;52.520;13.494;2022-07-30T14:44:22;27.60;1.00
9768;DHT22;4923;52.520;13.494;2022-07-30T14:47:09;27.20;1.00
9768;DHT22;4923;52.520;13.494;2022-07-30T14:49:57;27.50;1.00
9768;DHT22;4923;52.520;13.494;2022-07-30T14:52:44;27.50;1.00
9768;DHT22;4923;52.520;13.494;2022-07-30T14:55:32;27.40;1.00
9768;DHT22;4923;52.520;13.494;2022-07-30T14:58:19;27.20;1.00
9768;DHT22;4923;52.520;13.494;2022-07-30T15:01:06;26.80;1.00
9768;DHT22;4923;52.520;13.494;2022-07-30T15:03:53;27.00;1.00
9768;DHT22;4923;52.520;13.494;2022-07-30T15:06:41;27.20;1.00
9768;DHT22;4923;52.520;13.494;2022-07-30T15:09:28;27.30;1.00
9768;DHT22;4923;52.520;13.494;2022-07-30T15:12:18;27.20;1.00
9768;DHT22;4923;52.520;13.494;2022-07-30T15:15:06;27.10;1.00
9768;DHT22;4923;52.520;13.494;2022-07-30T15:17:53;26.80;1.00
9768;DHT22;4923;52.520;13.494;2022-07-30T15:20:40;26.40;1.00
9768;DHT22;4923;52.520;13.494;2022-07-30T15:23:28;26.70;1.00
9768;DHT22;4923;52.520;13.494;2022-07-30T15:26:16;26.70;1.00
9768;DHT22;4923;52.520;13.494;2022-07-30T15:29:04;27.00;1.00
9768;DHT22;4923;52.520;13.494;2022-07-30T15:31:51;27.10;1.00
9768;DHT22;4923;52.520;13.494;2022-07-30T15:34:38;27.00;1.00
9768;DHT22;4923;52.520;13.494;2022-07-30T15:37:25;27.00;1.00
9768;DHT22;4923;52.520;13.494;2022-07-30T15:40:14;26.80;1.00
9768;DHT22;4923;52.520;13.494;2022-07-30T15:43:01;27.10;1.00
9768;DHT22;4923;52.520;13.494;2022-07-30T15:45:48;27.00;1.00
9768;DHT22;4923;52.520;13.494;2022-07-30T15:48:34;26.80;1.00
9768;DHT22;4923;52.520;13.494;2022-07-30T15:51:22;26.70;1.00
9768;DHT22;4923;52.520;13.494;2022-07-30T15:54:09;26.50;1.00
9768;DHT22;4923;52.520;13.494;2022-07-30T15:56:57;26.40;1.00
9768;DHT22;4923;52.520;13.494;2022-07-30T15:59:45;26.50;1.00
9768;DHT22;4923;52.520;13.494;2022-07-30T16:02:32;26.60;1.00
9768;DHT22;4923;52.520;13.494;2022-07-30T16:05:19;26.70;1.00
9768;DHT22;4923;52.520;13.494;2022-07-30T16:08:06;26.80;1.00
9768;DHT22;4923;52.520;13.494;2022-07-30T16:10:53;26.90;1.00
9768;DHT22;4923;52.520;13.494;2022-07-30T16:13:41;26.70;1.00
9768;DHT22;4923;52.520;13.494;2022-07-30T16:16:28;26.60;1.00
9768;DHT22;4923;52.520;13.494;2022-07-30T16:19:15;26.50;1.00
9768;DHT22;4923;52.520;13.494;2022-07-30T16:22:02;26.30;1.00
9768;DHT22;4923;52.520;13.494;2022-07-30T16:24:49;26.30;1.00
9768;DHT22;4923;52.520;13.494;2022-07-30T16:27:36;26.30;1.00
9768;DHT22;4923;52.520;13.494;2022-07-30T16:30:24;26.20;1.00
9768;DHT22;4923;52.520;13.494;2022-07-30T16:33:11;26.20;1.00
9768;DHT22;4923;52.520;13.494;2022-07-30T16:35:58;26.10;1.00
9768;DHT22;4923;52.520;13.494;2022-07-30T16:38:45;25.90;1.00
9768;DHT22;4923;52.520;13.494;2022-07-30T16:41:32;26.00;1.00
9768;DHT22;4923;52.520;13.494;2022-07-30T16:44:19;26.00;1.00
9768;DHT22;4923;52.520;13.494;2022-07-30T16:47:07;26.00;1.00
9768;DHT22;4923;52.520;13.494;2022-07-30T16:49:54;26.00;1.00
9768;DHT22;4923;52.520;13.494;2022-07-30T16:52:41;26.00;1.00
9768;DHT22;4923;52.520;13.494;2022-07-30T16:55:28;25.80;1.00
9768;DHT22;4923;52.520;13.494;2022-07-30T16:58:15;25.90;1.00
9768;DHT22;4923;52.520;13.494;2022-07-30T17:01:02;26.30;1.00
9768;DHT22;4923;52.520;13.494;2022-07-30T17:03:50;27.30;1.00
9768;DHT22;4923;52.520;13.494;2022-07-30T17:06:37;27.90;1.00
9768;DHT22;4923;52.520;13.494;2022-07-30T17:09:25;28.50;1.00
9768;DHT22;4923;52.520;13.494;2022-07-30T17:12:12;29.00;1.00
9768;DHT22;4923;52.520;13.494;2022-07-30T17:14:59;29.20;1.00
9768;DHT22;4923;52.520;13.494;2022-07-30T17:17:46;29.40;1.00
9768;DHT22;4923;52.520;13.494;2022-07-30T17:20:34;29.80;1.00
9768;DHT22;4923;52.520;13.494;2022-07-30T17:23:21;30.30;1.00
9768;DHT22;4923;52.520;13.494;2022-07-30T17:26:08;30.70;1.00
9768;DHT22;4923;52.520;13.494;2022-07-30T17:28:55;30.30;1.00
9768;DHT22;4923;52.520;13.494;2022-07-30T17:31:43;29.20;1.00
9768;DHT22;4923;52.520;13.494;2022-07-30T17:34:30;29.40;1.00
9768;DHT22;4923;52.520;13.494;2022-07-30T17:37:18;29.30;1.00
9768;DHT22;4923;52.520;13.494;2022-07-30T17:40:06;29.30;1.00
9768;DHT22;4923;52.520;13.494;2022-07-30T17:42:53;29.60;1.00
9768;DHT22;4923;52.520;13.494;2022-07-30T17:45:40;29.80;1.00
9768;DHT22;4923;52.520;13.494;2022-07-30T17:48:27;29.80;1.00
9768;DHT22;4923;52.520;13.494;2022-07-30T17:51:14;30.00;99.90
9768;DHT22;4923;52.520;13.494;2022-07-30T17:54:03;30.30;1.00
9768;DHT22;4923;52.520;13.494;2022-07-30T17:56:54;30.50;1.00
9768;DHT22;4923;52.520;13.494;2022-07-30T17:59:41;30.60;99.90
9768;DHT22;4923;52.520;13.494;2022-07-30T18:02:28;30.80;99.90
9768;DHT22;4923;52.520;13.494;2022-07-30T18:05:15;29.90;99.90
9768;DHT22;4923;52.520;13.494;2022-07-30T18:08:02;29.60;99.90
9768;DHT22;4923;52.520;13.494;2022-07-30T18:10:51;29.50;99.90
9768;DHT22;4923;52.520;13.494;2022-07-30T18:13:39;29.10;99.90
9768;DHT22;4923;52.520;13.494;2022-07-30T18:16:26;28.70;1.00
9768;DHT22;4923;52.520;13.494;2022-07-30T18:19:13;28.50;1.00
9768;DHT22;4923;52.520;13.494;2022-07-30T18:22:00;28.40;1.00